Middle Point, Ohio
Current Conditions -  °F | °C
As of 12:53 PM on Saturday 20 Dec 2014 (Local Time) from KAOH Reporting Station
Haze Haze  
Wind Chill: 26°   Ceiling: 2700
Heat Index: 32°   Visibility: 6mi
Dew Point: 23°   Wind: 6mph
Humidity: 69%   Direction: 220°SW
Pressure: 30.25"   Gusts: NA
Location:  40.86°N, 84.45°W
Report Text: KAOH 201753Z AUTO 22005KT 6SM HZ OVC027 00/M05 A3025 RMK AO2 SLP256 T00001050 10006 21011 58012
Loading
Personal Weather Stations






























Interactive Weather Map New forecast layout! Learn more

10-Day Weather Forecast

Advertisements
Track Severe Weather on mobile